createdAt,value
2023-01-07T00:01:17.834Z,6.40
2023-01-07T00:03:46.562Z,6.30
2023-01-07T00:06:16.752Z,6.30
2023-01-07T00:08:47.326Z,6.30
2023-01-07T00:11:17.334Z,6.20
2023-01-07T00:13:45.373Z,6.20
2023-01-07T00:16:15.682Z,6.20
2023-01-07T00:18:44.523Z,6.20
2023-01-07T00:21:15.081Z,6.20
2023-01-07T00:23:45.656Z,6.20
2023-01-07T00:26:16.103Z,6.20
2023-01-07T00:28:46.208Z,6.20
2023-01-07T00:31:15.642Z,6.30
2023-01-07T00:33:51.770Z,6.30
2023-01-07T00:36:21.929Z,6.30
2023-01-07T00:38:56.590Z,6.30
2023-01-07T00:41:24.808Z,6.30
2023-01-07T00:43:52.808Z,6.30
2023-01-07T00:46:20.809Z,6.30
2023-01-07T00:48:48.630Z,6.30
2023-01-07T00:51:17.825Z,6.20
2023-01-07T00:53:46.051Z,6.10
2023-01-07T00:56:17.697Z,6.20
2023-01-07T00:58:45.757Z,6.10
2023-01-07T01:01:13.987Z,6.00
2023-01-07T01:03:42.172Z,6.00
2023-01-07T01:06:14.221Z,6.00
2023-01-07T01:08:43.538Z,6.00
2023-01-07T01:11:12.438Z,6.10
2023-01-07T01:13:41.946Z,6.10
2023-01-07T01:16:11.711Z,6.20
2023-01-07T01:18:40.361Z,6.30
2023-01-07T01:21:10.659Z,6.30
2023-01-07T01:23:38.504Z,6.40
2023-01-07T01:26:07.322Z,6.40
2023-01-07T01:28:35.482Z,6.50
2023-01-07T01:31:05.349Z,6.50
2023-01-07T01:33:33.094Z,6.40
2023-01-07T01:36:05.002Z,6.50
2023-01-07T01:38:32.772Z,6.50
2023-01-07T01:41:00.692Z,6.60
2023-01-07T01:43:33.369Z,6.50
2023-01-07T01:46:06.929Z,6.50
2023-01-07T01:48:37.063Z,6.60
2023-01-07T01:51:05.350Z,6.60
2023-01-07T01:53:35.746Z,6.60
2023-01-07T01:56:08.197Z,6.60
2023-01-07T01:58:39.787Z,6.60
2023-01-07T02:01:09.299Z,6.60
2023-01-07T02:03:38.601Z,6.50
2023-01-07T02:06:08.620Z,6.50
2023-01-07T02:08:36.336Z,6.40
2023-01-07T02:11:18.700Z,6.40
2023-01-07T02:14:00.610Z,6.30
2023-01-07T02:16:40.042Z,6.30
2023-01-07T02:19:41.007Z,6.30
2023-01-07T02:22:18.164Z,6.30
2023-01-07T02:25:22.738Z,6.40
2023-01-07T02:28:10.424Z,6.40
2023-01-07T02:31:14.594Z,6.40
2023-01-07T02:33:52.239Z,6.30
2023-01-07T02:36:45.186Z,6.40
2023-01-07T02:39:23.143Z,6.40
2023-01-07T02:41:58.411Z,6.40
2023-01-07T02:44:35.632Z,6.50
2023-01-07T02:47:10.673Z,6.50
2023-01-07T02:49:39.748Z,6.50
2023-01-07T02:52:22.808Z,6.50
2023-01-07T02:54:57.200Z,6.50
2023-01-07T02:58:04.507Z,6.40
2023-01-07T03:00:56.552Z,6.40
2023-01-07T03:03:42.310Z,6.40
2023-01-07T03:06:27.569Z,6.30
2023-01-07T03:09:04.740Z,6.20
2023-01-07T03:11:38.386Z,6.20
2023-01-07T03:14:10.317Z,6.20
2023-01-07T03:16:40.824Z,6.20
2023-01-07T03:19:12.290Z,6.20
2023-01-07T03:21:41.477Z,6.20
2023-01-07T03:24:10.026Z,6.20
2023-01-07T03:26:41.911Z,6.20
2023-01-07T03:29:12.768Z,6.10
2023-01-07T03:31:47.350Z,6.10
2023-01-07T03:34:18.547Z,6.10
2023-01-07T03:36:53.742Z,6.10
2023-01-07T03:39:24.931Z,6.10
2023-01-07T03:42:10.961Z,6.10
2023-01-07T03:44:38.861Z,6.20
2023-01-07T03:47:07.696Z,6.20
2023-01-07T03:49:38.041Z,6.20
2023-01-07T03:52:07.697Z,6.20
2023-01-07T03:54:35.464Z,6.20
2023-01-07T03:57:03.308Z,6.20
2023-01-07T03:59:31.069Z,6.20
2023-01-07T04:01:59.108Z,6.20
2023-01-07T04:04:27.010Z,6.20
2023-01-07T04:06:54.898Z,6.10
2023-01-07T04:09:23.951Z,6.10
2023-01-07T04:11:51.689Z,6.20
2023-01-07T04:14:19.408Z,6.20
2023-01-07T04:16:47.192Z,6.40
2023-01-07T04:19:14.908Z,6.40
2023-01-07T04:21:42.651Z,6.40
2023-01-07T04:24:10.666Z,6.50
2023-01-07T04:26:39.777Z,6.50
2023-01-07T04:29:07.698Z,6.50
2023-01-07T04:31:35.613Z,6.50
2023-01-07T04:34:03.396Z,6.60
2023-01-07T04:36:31.242Z,6.60
2023-01-07T04:38:59.125Z,6.60
2023-01-07T04:41:26.861Z,6.70
2023-01-07T04:43:55.927Z,6.70
2023-01-07T04:46:24.513Z,6.70
2023-01-07T04:48:52.501Z,6.80
2023-01-07T04:51:21.132Z,6.80
2023-01-07T04:53:49.302Z,6.90
2023-01-07T04:56:17.042Z,6.90
2023-01-07T04:58:44.946Z,7.00
2023-01-07T05:01:14.091Z,6.90
2023-01-07T05:03:42.017Z,7.00
2023-01-07T05:06:10.345Z,7.00
2023-01-07T05:08:38.110Z,6.90
2023-01-07T05:11:06.190Z,6.90
2023-01-07T05:13:35.306Z,6.90
2023-01-07T05:16:03.652Z,6.90
2023-01-07T05:18:32.745Z,6.90
2023-01-07T05:21:00.499Z,6.90
2023-01-07T05:23:28.217Z,6.90
2023-01-07T05:25:55.953Z,6.90
2023-01-07T05:28:23.736Z,6.80
2023-01-07T05:30:51.499Z,6.80
2023-01-07T05:33:19.415Z,6.80
2023-01-07T05:35:49.932Z,6.80
2023-01-07T05:38:17.810Z,6.80
2023-01-07T05:40:49.761Z,6.70
2023-01-07T05:43:18.029Z,6.60
2023-01-07T05:45:46.561Z,6.70
2023-01-07T05:48:15.312Z,6.60
2023-01-07T05:50:43.338Z,6.60
2023-01-07T05:53:12.510Z,6.70
2023-01-07T05:55:40.514Z,6.70
2023-01-07T05:58:09.007Z,6.80
2023-01-07T06:00:37.853Z,6.80
2023-01-07T06:03:06.288Z,6.90
2023-01-07T06:05:34.152Z,6.90
2023-01-07T06:08:01.885Z,7.00
2023-01-07T06:10:30.969Z,7.00
2023-01-07T06:12:58.697Z,7.10
2023-01-07T06:15:26.435Z,7.10
2023-01-07T06:17:54.183Z,7.10
2023-01-07T06:20:22.007Z,7.20
2023-01-07T06:22:49.860Z,7.20
2023-01-07T06:25:18.271Z,7.30
2023-01-07T06:27:47.314Z,7.30
2023-01-07T06:30:15.157Z,7.40
2023-01-07T06:32:44.412Z,7.30
2023-01-07T06:35:13.135Z,7.30
2023-01-07T06:37:40.887Z,7.30
2023-01-07T06:40:09.942Z,7.20
2023-01-07T06:42:37.696Z,7.20
2023-01-07T06:45:07.585Z,7.20
2023-01-07T06:47:35.338Z,7.20
2023-01-07T06:50:03.107Z,7.20
2023-01-07T06:52:30.860Z,7.30
2023-01-07T06:54:58.600Z,7.30
2023-01-07T06:57:26.349Z,7.30
2023-01-07T06:59:54.108Z,7.30
2023-01-07T07:02:24.732Z,7.40
2023-01-07T07:04:52.805Z,7.40
2023-01-07T07:07:21.232Z,7.50
2023-01-07T07:09:50.631Z,7.40
2023-01-07T07:12:19.377Z,7.40
2023-01-07T07:14:47.189Z,7.40
2023-01-07T07:17:15.330Z,7.40
2023-01-07T07:19:44.442Z,7.40
2023-01-07T07:22:12.313Z,7.40
2023-01-07T07:24:40.056Z,7.30
2023-01-07T07:27:07.844Z,7.40
2023-01-07T07:29:35.923Z,7.40
2023-01-07T07:32:03.636Z,7.40
2023-01-07T07:34:31.401Z,7.30
2023-01-07T07:37:00.469Z,7.30
2023-01-07T07:39:28.205Z,7.30
2023-01-07T07:41:55.942Z,7.20
2023-01-07T07:44:23.696Z,7.30
2023-01-07T07:46:51.551Z,7.20
2023-01-07T07:49:19.377Z,7.20
2023-01-07T07:51:47.112Z,7.10
2023-01-07T07:54:16.245Z,7.10
2023-01-07T07:56:43.974Z,7.10
2023-01-07T07:59:12.034Z,7.20
2023-01-07T08:01:39.867Z,7.20
2023-01-07T08:04:07.687Z,7.20
2023-01-07T08:06:35.888Z,7.20
2023-01-07T08:09:03.782Z,7.20
2023-01-07T08:11:32.831Z,7.30
2023-01-07T08:14:00.568Z,7.40
2023-01-07T08:16:28.698Z,7.50
2023-01-07T08:18:56.574Z,7.60
2023-01-07T08:21:24.312Z,7.70
2023-01-07T08:23:52.067Z,7.80
2023-01-07T08:26:19.831Z,7.90
2023-01-07T08:28:48.914Z,7.90
2023-01-07T08:31:16.691Z,8.00
2023-01-07T08:33:44.637Z,8.10
2023-01-07T08:36:22.582Z,8.20
2023-01-07T08:38:52.148Z,8.20
2023-01-07T08:41:20.176Z,8.20
2023-01-07T08:43:49.300Z,8.20
2023-01-07T08:46:17.617Z,8.20
2023-01-07T08:48:45.467Z,8.20
2023-01-07T08:51:13.212Z,8.20
2023-01-07T08:53:41.418Z,8.20
2023-01-07T08:56:09.215Z,8.20
2023-01-07T08:58:38.431Z,8.30
2023-01-07T09:01:08.896Z,8.20
2023-01-07T09:03:36.781Z,8.20
2023-01-07T09:06:04.697Z,8.30
2023-01-07T09:08:32.563Z,8.30
2023-01-07T09:11:00.311Z,8.30
2023-01-07T09:13:28.196Z,8.30
2023-01-07T09:15:55.953Z,8.30
2023-01-07T09:18:25.013Z,8.30
2023-01-07T09:20:52.838Z,8.40
2023-01-07T09:23:20.684Z,8.40
2023-01-07T09:25:48.436Z,8.60
2023-01-07T09:28:16.322Z,8.70
2023-01-07T09:30:44.304Z,8.70
2023-01-07T09:33:12.138Z,8.80
2023-01-07T09:35:41.215Z,8.90
2023-01-07T09:38:08.969Z,8.90
2023-01-07T09:40:39.788Z,9.10
2023-01-07T09:43:14.989Z,9.20
2023-01-07T09:45:46.621Z,9.40
2023-01-07T09:48:22.114Z,9.60
2023-01-07T09:50:56.563Z,9.70
2023-01-07T09:53:27.585Z,9.80
2023-01-07T09:56:10.687Z,9.80
2023-01-07T09:58:42.647Z,9.90
2023-01-07T10:01:22.083Z,10.10
2023-01-07T10:04:03.402Z,10.30
2023-01-07T10:06:43.612Z,10.40
2023-01-07T10:09:26.252Z,10.60
2023-01-07T10:12:07.707Z,10.70
2023-01-07T10:15:05.261Z,10.70
2023-01-07T10:17:46.184Z,10.70
2023-01-07T10:20:19.149Z,10.60
2023-01-07T10:22:53.446Z,10.50
2023-01-07T10:25:24.971Z,10.40
2023-01-07T10:27:55.743Z,10.50
2023-01-07T10:30:26.185Z,10.30
2023-01-07T10:33:00.657Z,10.20
2023-01-07T10:35:30.323Z,10.30
2023-01-07T10:38:04.566Z,10.50
2023-01-07T10:40:39.708Z,11.00
2023-01-07T10:43:22.221Z,11.10
2023-01-07T10:46:11.007Z,11.00
2023-01-07T10:49:12.678Z,10.80
2023-01-07T10:51:53.921Z,10.70
2023-01-07T10:54:41.767Z,10.70
2023-01-07T10:57:16.304Z,10.70
2023-01-07T10:59:50.004Z,10.90
2023-01-07T11:02:20.194Z,10.90
2023-01-07T11:04:48.352Z,11.00
2023-01-07T11:07:22.715Z,10.90
2023-01-07T11:09:53.701Z,11.00
2023-01-07T11:12:33.676Z,11.10
2023-01-07T11:15:04.926Z,11.00
2023-01-07T11:17:36.947Z,10.90
2023-01-07T11:20:06.488Z,10.80
2023-01-07T11:22:36.580Z,10.80
2023-01-07T11:25:30.917Z,10.70
2023-01-07T11:28:01.672Z,10.60
2023-01-07T11:30:32.981Z,10.60
2023-01-07T11:33:03.583Z,10.60
2023-01-07T11:35:31.366Z,10.60
2023-01-07T11:38:00.247Z,10.60
2023-01-07T11:40:31.010Z,10.60
2023-01-07T11:43:00.094Z,10.60
2023-01-07T11:45:29.742Z,10.60
2023-01-07T11:48:01.764Z,10.60
2023-01-07T11:50:35.442Z,10.70
2023-01-07T11:53:20.917Z,10.70
2023-01-07T11:55:58.967Z,10.80
2023-01-07T11:58:30.773Z,10.90
2023-01-07T12:01:16.728Z,10.90
2023-01-07T12:03:46.501Z,11.00
2023-01-07T12:06:21.026Z,11.00
2023-01-07T12:08:55.022Z,11.10
2023-01-07T12:11:31.706Z,11.00
2023-01-07T12:14:07.517Z,11.00
2023-01-07T12:16:36.333Z,11.00
2023-01-07T12:19:17.000Z,10.90
2023-01-07T12:22:06.852Z,10.90
2023-01-07T12:24:49.964Z,10.90
2023-01-07T12:27:29.632Z,10.90
2023-01-07T12:30:09.375Z,10.90
2023-01-07T12:32:48.581Z,10.90
2023-01-07T12:35:21.956Z,11.00
2023-01-07T12:37:56.478Z,11.10
2023-01-07T12:40:33.868Z,11.20
2023-01-07T12:43:10.438Z,11.30
2023-01-07T12:45:47.069Z,11.30
2023-01-07T12:48:21.732Z,11.40
2023-01-07T12:50:53.521Z,11.50
2023-01-07T12:53:28.967Z,11.50
2023-01-07T12:56:01.081Z,11.50
2023-01-07T12:58:41.118Z,11.60
2023-01-07T13:01:19.640Z,11.60
2023-01-07T13:03:54.977Z,11.50
2023-01-07T13:06:36.644Z,11.50
2023-01-07T13:09:16.454Z,11.60
2023-01-07T13:12:04.489Z,11.80
2023-01-07T13:14:39.514Z,12.00
2023-01-07T13:17:16.450Z,12.10
2023-01-07T13:19:44.597Z,12.00
2023-01-07T13:22:18.240Z,11.90
2023-01-07T13:24:57.413Z,11.90
2023-01-07T13:27:33.060Z,11.90
2023-01-07T13:30:15.781Z,11.80
2023-01-07T13:33:05.688Z,11.90
2023-01-07T13:35:49.841Z,11.90
2023-01-07T13:38:43.805Z,11.90
2023-01-07T13:41:26.225Z,11.80
2023-01-07T13:44:15.364Z,11.70
2023-01-07T13:46:46.596Z,11.60
2023-01-07T13:49:27.342Z,11.50
2023-01-07T13:51:55.710Z,11.40
2023-01-07T13:54:57.948Z,11.40
2023-01-07T13:57:44.878Z,11.30
2023-01-07T14:00:42.011Z,11.20
2023-01-07T14:03:43.216Z,11.10
2023-01-07T14:06:38.744Z,11.00
2023-01-07T14:09:21.083Z,11.00
2023-01-07T14:12:12.371Z,11.00
2023-01-07T14:14:50.448Z,10.90
2023-01-07T14:17:27.160Z,10.80
2023-01-07T14:20:02.773Z,10.80
2023-01-07T14:22:42.899Z,10.70
2023-01-07T14:25:43.170Z,10.70
2023-01-07T14:28:51.628Z,10.70
2023-01-07T14:31:24.531Z,10.50
2023-01-07T14:33:58.051Z,10.40
2023-01-07T14:36:45.976Z,10.40
2023-01-07T14:39:33.113Z,10.40
2023-01-07T14:42:40.172Z,10.30
2023-01-07T14:45:41.622Z,10.30
2023-01-07T14:48:29.126Z,10.30
2023-01-07T14:51:20.416Z,10.30
2023-01-07T14:54:17.692Z,10.20
2023-01-07T14:57:00.275Z,10.10
2023-01-07T14:59:47.586Z,10.00
2023-01-07T15:02:44.330Z,9.90
2023-01-07T15:05:48.950Z,9.80
2023-01-07T15:08:38.195Z,9.70
2023-01-07T15:11:27.669Z,9.60
2023-01-07T15:14:17.692Z,9.50
2023-01-07T15:16:50.052Z,9.50
2023-01-07T15:19:17.950Z,9.40
2023-01-07T15:21:55.842Z,9.40
2023-01-07T15:24:32.109Z,9.40
2023-01-07T15:27:06.401Z,9.40
2023-01-07T15:29:44.928Z,9.40
2023-01-07T15:32:25.610Z,9.40
2023-01-07T15:34:53.536Z,9.40
2023-01-07T15:37:21.834Z,9.50
2023-01-07T15:39:59.670Z,9.50
2023-01-07T15:42:29.076Z,9.50
2023-01-07T15:45:00.084Z,9.50
2023-01-07T15:47:31.962Z,9.50
2023-01-07T15:50:22.883Z,9.50
2023-01-07T15:52:51.634Z,9.50
2023-01-07T15:55:25.404Z,9.50
2023-01-07T15:57:57.823Z,9.50
2023-01-07T16:00:27.551Z,9.50
2023-01-07T16:02:56.097Z,9.50
2023-01-07T16:05:25.235Z,9.50
2023-01-07T16:07:55.012Z,9.50
2023-01-07T16:10:25.650Z,9.60
2023-01-07T16:12:55.252Z,9.70
2023-01-07T16:15:25.503Z,9.70
2023-01-07T16:17:56.820Z,9.70
2023-01-07T16:20:29.519Z,9.70
2023-01-07T16:23:21.293Z,9.80
2023-01-07T16:25:54.276Z,9.70
2023-01-07T16:28:24.607Z,9.80
2023-01-07T16:30:53.418Z,9.80
2023-01-07T16:33:26.387Z,9.70
2023-01-07T16:35:57.072Z,9.70
2023-01-07T16:38:25.744Z,9.70
2023-01-07T16:40:54.259Z,9.70
2023-01-07T16:43:34.590Z,9.70
2023-01-07T16:46:21.046Z,9.70
2023-01-07T16:49:26.836Z,9.80
2023-01-07T16:52:04.890Z,9.80
2023-01-07T16:54:37.109Z,9.90
2023-01-07T16:57:06.998Z,9.80
2023-01-07T16:59:37.313Z,9.90
2023-01-07T17:02:19.954Z,9.90
2023-01-07T17:04:49.308Z,9.90
2023-01-07T17:07:22.916Z,9.90
2023-01-07T17:09:54.408Z,9.90
2023-01-07T17:12:29.147Z,9.90
2023-01-07T17:14:56.963Z,9.90
2023-01-07T17:17:29.707Z,9.90
2023-01-07T17:20:22.290Z,9.90
2023-01-07T17:22:51.139Z,9.90
2023-01-07T17:25:24.484Z,10.00
2023-01-07T17:27:57.790Z,10.00
2023-01-07T17:30:32.792Z,10.00
2023-01-07T17:33:00.862Z,10.00
2023-01-07T17:35:29.996Z,9.90
2023-01-07T17:37:57.817Z,9.90
2023-01-07T17:40:25.713Z,9.90
2023-01-07T17:43:11.233Z,9.90
2023-01-07T17:45:39.089Z,9.80
2023-01-07T17:48:13.182Z,9.80
2023-01-07T17:50:43.030Z,9.80
2023-01-07T17:53:20.370Z,9.80
2023-01-07T17:55:48.165Z,9.80
2023-01-07T17:58:26.357Z,9.80
2023-01-07T18:00:54.545Z,9.70
2023-01-07T18:03:22.906Z,9.70
2023-01-07T18:05:52.100Z,9.80
2023-01-07T18:08:19.959Z,9.80
2023-01-07T18:11:06.204Z,9.70
2023-01-07T18:13:34.193Z,9.50
2023-01-07T18:16:02.035Z,9.40
2023-01-07T18:18:29.894Z,9.40
2023-01-07T18:20:59.619Z,9.30
2023-01-07T18:23:27.459Z,9.40
2023-01-07T18:25:55.286Z,9.40
2023-01-07T18:28:23.048Z,9.40
2023-01-07T18:30:50.824Z,9.50
2023-01-07T18:33:18.616Z,9.50
2023-01-07T18:35:48.906Z,9.50
2023-01-07T18:38:18.359Z,9.50
2023-01-07T18:40:46.285Z,9.40
2023-01-07T18:43:14.889Z,9.50
2023-01-07T18:45:43.366Z,9.50
2023-01-07T18:48:12.480Z,9.60
2023-01-07T18:50:45.991Z,9.50
2023-01-07T18:53:14.130Z,9.50
2023-01-07T18:55:43.956Z,9.50
2023-01-07T18:58:14.242Z,9.50
2023-01-07T19:00:42.537Z,9.60
2023-01-07T19:03:11.042Z,9.60
2023-01-07T19:05:40.750Z,9.60
2023-01-07T19:08:08.772Z,9.60
2023-01-07T19:10:37.293Z,9.60
2023-01-07T19:13:06.539Z,9.60
2023-01-07T19:15:34.619Z,9.60
2023-01-07T19:18:02.387Z,9.60
2023-01-07T19:20:30.150Z,9.60
2023-01-07T19:23:00.479Z,9.60
2023-01-07T19:25:28.438Z,9.50
2023-01-07T19:27:56.805Z,9.60
2023-01-07T19:30:26.257Z,9.60
2023-01-07T19:32:54.492Z,9.70
2023-01-07T19:35:22.315Z,9.60
2023-01-07T19:37:50.380Z,9.60
2023-01-07T19:40:18.379Z,9.70
2023-01-07T19:42:47.890Z,9.70
2023-01-07T19:45:15.861Z,9.70
2023-01-07T19:47:46.679Z,9.70
2023-01-07T19:50:16.102Z,9.60
2023-01-07T19:52:43.960Z,9.60
2023-01-07T19:55:11.753Z,9.50
2023-01-07T19:57:39.571Z,9.50
2023-01-07T20:00:09.177Z,9.50
2023-01-07T20:02:37.051Z,9.60
2023-01-07T20:05:07.031Z,9.50
2023-01-07T20:07:34.986Z,9.50
2023-01-07T20:10:03.027Z,9.50
2023-01-07T20:12:30.860Z,9.50
2023-01-07T20:14:58.706Z,9.50
2023-01-07T20:17:26.721Z,9.60
2023-01-07T20:19:54.543Z,9.60
2023-01-07T20:22:24.258Z,9.60
2023-01-07T20:24:52.319Z,9.60
2023-01-07T20:27:20.268Z,9.50
2023-01-07T20:29:48.183Z,9.50
2023-01-07T20:32:17.830Z,9.60
2023-01-07T20:34:46.806Z,9.60
2023-01-07T20:37:14.666Z,9.60
2023-01-07T20:39:44.136Z,9.60
2023-01-07T20:42:12.091Z,9.60
2023-01-07T20:44:41.524Z,9.60
2023-01-07T20:47:09.316Z,9.50
2023-01-07T20:49:37.117Z,9.50
2023-01-07T20:52:05.024Z,9.50
2023-01-07T20:54:32.858Z,9.50
2023-01-07T20:57:02.440Z,9.60
2023-01-07T20:59:30.245Z,9.50
2023-01-07T21:01:58.200Z,9.40
2023-01-07T21:04:28.996Z,9.40
2023-01-07T21:06:56.911Z,9.40
2023-01-07T21:09:24.956Z,9.40
2023-01-07T21:11:52.776Z,9.40
2023-01-07T21:14:22.020Z,9.40
2023-01-07T21:16:49.868Z,9.40
2023-01-07T21:19:17.699Z,9.40
2023-01-07T21:21:45.561Z,9.40
2023-01-07T21:24:16.942Z,9.40
2023-01-07T21:26:46.969Z,9.40
2023-01-07T21:29:16.058Z,9.40
2023-01-07T21:31:46.088Z,9.40
2023-01-07T21:34:15.384Z,9.40
2023-01-07T21:36:43.206Z,9.20
2023-01-07T21:39:13.235Z,9.30
2023-01-07T21:41:41.086Z,9.20
2023-01-07T21:44:11.131Z,9.30
2023-01-07T21:46:39.275Z,9.30
2023-01-07T21:49:08.559Z,9.20
2023-01-07T21:51:36.365Z,9.20
2023-01-07T21:54:04.207Z,9.20
2023-01-07T21:56:32.927Z,9.20
2023-01-07T21:59:01.367Z,9.20
2023-01-07T22:01:29.796Z,9.20
2023-01-07T22:03:59.308Z,9.20
2023-01-07T22:06:30.294Z,9.20
2023-01-07T22:08:59.781Z,9.20
2023-01-07T22:11:28.049Z,9.20
2023-01-07T22:13:57.213Z,9.10
2023-01-07T22:16:26.510Z,9.10
2023-01-07T22:18:54.531Z,9.10
2023-01-07T22:21:22.316Z,9.10
2023-01-07T22:23:52.120Z,9.00
2023-01-07T22:26:21.119Z,8.90
2023-01-07T22:28:53.409Z,9.00
2023-01-07T22:31:23.452Z,8.90
2023-01-07T22:33:51.542Z,8.90
2023-01-07T22:36:24.649Z,8.90
2023-01-07T22:38:54.266Z,8.90
2023-01-07T22:41:22.057Z,8.90
2023-01-07T22:43:49.881Z,8.90
2023-01-07T22:46:22.282Z,8.80
2023-01-07T22:48:50.832Z,8.80
2023-01-07T22:51:24.949Z,8.80
2023-01-07T22:53:56.181Z,8.80
2023-01-07T22:56:24.671Z,8.80
2023-01-07T22:58:52.450Z,8.70
2023-01-07T23:01:20.267Z,8.60
2023-01-07T23:03:49.125Z,8.70
2023-01-07T23:06:17.968Z,8.60
2023-01-07T23:08:45.899Z,8.50
2023-01-07T23:11:35.955Z,8.40
2023-01-07T23:14:04.072Z,8.30
2023-01-07T23:16:31.935Z,8.20
2023-01-07T23:18:59.659Z,8.10
2023-01-07T23:21:28.239Z,8.00
2023-01-07T23:23:55.982Z,8.00
2023-01-07T23:26:25.242Z,7.90
2023-01-07T23:28:53.253Z,7.90
2023-01-07T23:31:21.276Z,7.90
2023-01-07T23:33:49.120Z,7.80
2023-01-07T23:36:16.875Z,7.80
2023-01-07T23:38:44.793Z,7.70
2023-01-07T23:41:13.698Z,7.70
2023-01-07T23:43:42.752Z,7.70
2023-01-07T23:46:10.660Z,7.70
2023-01-07T23:48:39.409Z,7.60
2023-01-07T23:51:10.250Z,7.60
2023-01-07T23:53:38.291Z,7.60
2023-01-07T23:56:07.431Z,7.50
2023-01-07T23:58:36.556Z,7.60
